createdAt,value
2018-04-28T00:00:00.635Z,9.70
2018-04-28T00:02:28.219Z,8.07
2018-04-28T00:04:55.798Z,8.77
2018-04-28T00:07:23.372Z,9.63
2018-04-28T00:09:50.962Z,9.37
2018-04-28T00:12:18.550Z,7.97
2018-04-28T00:14:46.130Z,9.00
2018-04-28T00:17:16.583Z,9.07
2018-04-28T00:19:44.886Z,8.60
2018-04-28T00:22:13.366Z,8.13
2018-04-28T00:24:43.518Z,8.73
2018-04-28T00:27:31.427Z,8.93
2018-04-28T00:33:01.166Z,8.73
2018-04-28T00:35:29.666Z,10.07
2018-04-28T00:37:57.847Z,8.60
2018-04-28T00:43:22.800Z,8.97
2018-04-28T00:45:54.159Z,8.83
2018-04-28T00:48:36.106Z,9.90
2018-04-28T00:51:13.431Z,8.17
2018-04-28T00:53:40.978Z,10.17
2018-04-28T00:56:09.314Z,9.53
2018-04-28T00:58:44.370Z,9.70
2018-04-28T01:01:23.410Z,10.37
2018-04-28T01:03:54.609Z,9.00
2018-04-28T01:06:22.194Z,9.57
2018-04-28T01:08:49.774Z,9.57
2018-04-28T01:11:19.142Z,10.93
2018-04-28T01:13:48.337Z,10.53
2018-04-28T01:16:17.386Z,9.07
2018-04-28T01:21:41.618Z,10.70
2018-04-28T01:24:11.950Z,9.73
2018-04-28T01:26:44.498Z,9.70
2018-04-28T01:29:19.645Z,11.07
2018-04-28T01:31:50.695Z,11.23
2018-04-28T01:34:23.195Z,10.00
2018-04-28T01:40:05.196Z,11.07
2018-04-28T01:45:49.098Z,9.57
2018-04-28T01:48:26.226Z,10.63
2018-04-28T01:50:58.499Z,10.63
2018-04-28T01:53:39.595Z,11.80
2018-04-28T01:56:26.585Z,10.93
2018-04-28T01:59:12.823Z,10.40
2018-04-28T02:01:43.195Z,11.73
2018-04-28T02:04:16.226Z,12.50
2018-04-28T02:07:00.414Z,10.67
2018-04-28T02:09:28.007Z,12.23
2018-04-28T02:12:01.490Z,11.17
2018-04-28T02:14:37.958Z,11.17
2018-04-28T02:17:05.618Z,12.00
2018-04-28T02:22:40.429Z,11.87
2018-04-28T02:25:12.078Z,11.00
2018-04-28T02:27:47.437Z,13.10
2018-04-28T02:30:15.891Z,10.50
2018-04-28T02:32:47.210Z,12.40
2018-04-28T02:35:22.551Z,11.23
2018-04-28T02:37:50.130Z,11.07
2018-04-28T02:40:23.191Z,11.33
2018-04-28T02:42:57.247Z,11.77
2018-04-28T02:45:51.532Z,12.07
2018-04-28T02:48:28.705Z,13.20
2018-04-28T02:50:59.973Z,11.70
2018-04-28T02:53:28.270Z,13.50
2018-04-28T02:58:57.921Z,13.77
2018-04-28T03:01:34.303Z,12.80
2018-04-28T03:04:01.967Z,12.40
2018-04-28T03:09:41.758Z,14.03
2018-04-28T03:12:09.338Z,13.67
2018-04-28T03:14:38.469Z,12.90
2018-04-28T03:17:10.662Z,12.87
2018-04-28T03:19:40.205Z,13.90
2018-04-28T03:22:07.790Z,11.47
2018-04-28T03:24:45.111Z,13.67
2018-04-28T03:27:19.302Z,12.90
2018-04-28T03:29:55.503Z,13.20
2018-04-28T03:32:34.741Z,13.43
2018-04-28T03:35:02.318Z,13.43
2018-04-28T03:37:32.377Z,13.20
2018-04-28T03:39:59.952Z,14.57
2018-04-28T03:42:31.963Z,15.93
2018-04-28T03:44:59.570Z,15.97
2018-04-28T03:50:31.490Z,16.23
2018-04-28T03:53:04.902Z,16.20
2018-04-28T03:55:32.484Z,17.10
2018-04-28T03:58:11.721Z,16.07
2018-04-28T04:00:51.041Z,15.43
2018-04-28T04:03:23.398Z,16.00
2018-04-28T04:05:53.894Z,15.90
2018-04-28T04:08:22.882Z,15.57
2018-04-28T04:13:59.677Z,15.17
2018-04-28T04:16:45.983Z,15.63
2018-04-28T04:19:29.196Z,15.07
2018-04-28T04:22:08.375Z,15.23
2018-04-28T04:24:52.512Z,13.93
2018-04-28T04:27:27.021Z,15.10
2018-04-28T04:30:10.306Z,14.80
2018-04-28T04:32:53.634Z,16.40
2018-04-28T04:38:27.589Z,14.90
2018-04-28T04:40:58.070Z,14.90
2018-04-28T04:47:02.003Z,14.50
2018-04-28T04:49:45.316Z,15.17
2018-04-28T04:52:12.893Z,15.83
2018-04-28T04:54:51.335Z,16.07
2018-04-28T05:03:44.905Z,15.20
2018-04-28T05:06:23.923Z,14.90
2018-04-28T05:08:57.433Z,13.20
2018-04-28T05:11:36.959Z,13.70
2018-04-28T05:17:27.107Z,16.07
2018-04-28T05:20:06.428Z,15.63
2018-04-28T05:25:56.282Z,13.50
2018-04-28T05:28:34.903Z,13.60
2018-04-28T05:31:05.231Z,15.03
2018-04-28T05:36:53.266Z,13.00
2018-04-28T05:39:39.370Z,12.93
2018-04-28T05:42:27.602Z,11.83
2018-04-28T05:45:01.083Z,11.20
2018-04-28T05:47:36.391Z,10.90
2018-04-28T05:50:08.542Z,11.33
2018-04-28T05:52:48.678Z,10.53
2018-04-28T05:58:34.919Z,9.43
2018-04-28T06:01:07.062Z,8.83
2018-04-28T06:03:50.128Z,8.70
2018-04-28T06:12:56.338Z,7.63
2018-04-28T06:15:31.373Z,8.20
2018-04-28T06:18:10.615Z,8.67
2018-04-28T06:20:39.023Z,7.20
2018-04-28T06:23:06.600Z,7.73
2018-04-28T06:25:34.261Z,7.63
2018-04-28T06:28:01.926Z,7.90
2018-04-28T06:30:29.502Z,8.07
2018-04-28T06:32:57.146Z,6.10
2018-04-28T06:35:24.733Z,6.80
2018-04-28T06:37:52.320Z,6.63
2018-04-28T06:40:19.896Z,8.17
2018-04-28T06:42:47.518Z,7.90
2018-04-28T06:45:15.099Z,8.03
2018-04-28T06:47:42.686Z,9.20
2018-04-28T06:50:10.258Z,8.10
2018-04-28T06:52:37.846Z,7.37
2018-04-28T06:55:05.422Z,8.37
2018-04-28T06:57:33.063Z,8.37
2018-04-28T07:00:00.678Z,8.27
2018-04-28T07:02:28.272Z,9.50
2018-04-28T07:04:55.944Z,8.33
2018-04-28T07:07:23.647Z,7.87
2018-04-28T07:09:51.226Z,7.70
2018-04-28T07:12:18.808Z,7.90
2018-04-28T07:14:46.426Z,9.83
2018-04-28T07:17:14.014Z,11.80
2018-04-28T07:19:41.622Z,8.67
2018-04-28T07:22:09.213Z,44.30
2018-04-28T07:24:36.802Z,32.70
2018-04-28T07:27:04.560Z,13.60
2018-04-28T07:29:32.202Z,46.93
2018-04-28T07:31:59.830Z,11.60
2018-04-28T07:34:27.547Z,8.90
2018-04-28T07:36:55.163Z,8.27
2018-04-28T07:39:22.819Z,8.77
2018-04-28T07:41:50.402Z,7.27
2018-04-28T07:44:17.981Z,8.13
2018-04-28T07:46:45.660Z,8.43
2018-04-28T07:49:13.369Z,7.70
2018-04-28T07:51:40.983Z,8.10
2018-04-28T07:54:08.840Z,7.60
2018-04-28T07:56:36.469Z,7.50
2018-04-28T07:59:04.050Z,7.00
2018-04-28T08:01:31.640Z,8.27
2018-04-28T08:03:59.350Z,6.57
2018-04-28T08:06:26.938Z,6.27
2018-04-28T08:08:54.546Z,7.93
2018-04-28T08:11:22.126Z,7.10
2018-04-28T08:13:49.716Z,6.27
2018-04-28T08:16:17.305Z,7.57
2018-04-28T08:18:44.913Z,7.20
2018-04-28T08:21:12.528Z,7.13
2018-04-28T08:23:40.138Z,7.50
2018-04-28T08:26:07.726Z,6.67
2018-04-28T08:28:35.365Z,6.17
2018-04-28T08:31:02.946Z,5.40
2018-04-28T08:33:30.532Z,6.63
2018-04-28T08:35:58.251Z,5.47
2018-04-28T08:38:25.830Z,5.50
2018-04-28T08:40:53.413Z,5.40
2018-04-28T08:43:20.997Z,5.77
2018-04-28T08:45:48.610Z,6.37
2018-04-28T08:48:18.715Z,5.37
2018-04-28T08:50:46.298Z,5.20
2018-04-28T08:53:13.908Z,4.73
2018-04-28T08:55:41.494Z,5.10
2018-04-28T08:58:09.082Z,5.40
2018-04-28T09:00:41.264Z,4.90
2018-04-28T09:03:08.882Z,5.00
2018-04-28T09:05:36.461Z,5.77
2018-04-28T09:08:04.039Z,4.27
2018-04-28T09:10:31.616Z,5.10
2018-04-28T09:12:59.257Z,4.00
2018-04-28T09:15:26.805Z,4.40
2018-04-28T09:17:54.462Z,4.60
2018-04-28T09:20:22.046Z,4.70
2018-04-28T09:22:49.866Z,5.67
2018-04-28T09:25:17.449Z,5.53
2018-04-28T09:27:45.073Z,5.63
2018-04-28T09:30:12.648Z,6.17
2018-04-28T09:32:40.230Z,4.80
2018-04-28T09:35:07.929Z,3.80
2018-04-28T09:37:35.512Z,5.43
2018-04-28T09:40:03.215Z,4.83
2018-04-28T09:42:30.745Z,7.97
2018-04-28T09:44:58.339Z,3.87
2018-04-28T09:47:25.912Z,4.23
2018-04-28T09:49:53.491Z,5.00
2018-04-28T09:52:21.129Z,4.63
2018-04-28T09:54:48.706Z,4.93
2018-04-28T09:57:16.354Z,5.23
2018-04-28T09:59:43.932Z,4.17
2018-04-28T10:02:17.177Z,4.53
2018-04-28T10:04:44.834Z,4.77
2018-04-28T10:07:12.410Z,4.67
2018-04-28T10:09:39.989Z,4.83
2018-04-28T10:12:07.602Z,4.67
2018-04-28T10:14:35.221Z,4.00
2018-04-28T10:17:02.879Z,3.93
2018-04-28T10:19:30.545Z,4.73
2018-04-28T10:21:58.169Z,4.90
2018-04-28T10:24:25.749Z,4.43
2018-04-28T10:26:53.468Z,4.40
2018-04-28T10:29:21.047Z,4.43
2018-04-28T10:31:48.625Z,5.47
2018-04-28T10:34:16.909Z,4.00
2018-04-28T10:36:44.593Z,5.00
2018-04-28T10:39:12.176Z,4.80
2018-04-28T10:41:39.781Z,5.40
2018-04-28T10:44:07.738Z,5.70
2018-04-28T10:46:35.316Z,4.83
2018-04-28T10:49:02.937Z,5.97
2018-04-28T10:51:30.522Z,5.10
2018-04-28T10:53:58.190Z,6.10
2018-04-28T10:56:25.717Z,5.00
2018-04-28T10:58:53.294Z,5.30
2018-04-28T11:01:20.901Z,5.17
2018-04-28T11:03:48.479Z,5.80
2018-04-28T11:06:16.138Z,5.67
2018-04-28T11:08:44.665Z,4.10
2018-04-28T11:11:12.286Z,5.13
2018-04-28T11:13:39.914Z,4.60
2018-04-28T11:16:07.499Z,4.37
2018-04-28T11:18:35.077Z,4.27
2018-04-28T11:21:02.691Z,3.80
2018-04-28T11:23:30.277Z,4.07
2018-04-28T11:25:57.857Z,3.53
2018-04-28T11:28:25.571Z,2.87
2018-04-28T11:30:53.145Z,2.47
2018-04-28T11:33:20.754Z,2.60
2018-04-28T11:35:49.262Z,2.53
2018-04-28T11:38:17.113Z,3.13
2018-04-28T11:40:44.653Z,2.97
2018-04-28T11:43:12.234Z,3.33
2018-04-28T11:45:39.916Z,2.40
2018-04-28T11:48:07.540Z,2.80
2018-04-28T11:50:35.114Z,3.23
2018-04-28T11:53:02.694Z,2.23
2018-04-28T11:55:30.324Z,2.20
2018-04-28T11:57:57.901Z,2.30
2018-04-28T12:00:25.546Z,2.87
2018-04-28T12:02:53.133Z,1.93
2018-04-28T12:05:20.742Z,2.33
2018-04-28T12:07:48.317Z,2.03
2018-04-28T12:10:15.933Z,1.80
2018-04-28T12:12:43.505Z,2.20
2018-04-28T12:15:11.078Z,2.00
2018-04-28T12:17:38.686Z,1.83
2018-04-28T12:20:11.306Z,1.63
2018-04-28T12:22:39.741Z,1.60
2018-04-28T12:25:07.313Z,1.97
2018-04-28T12:27:34.898Z,2.50
2018-04-28T12:30:02.528Z,2.10
2018-04-28T12:32:30.142Z,1.97
2018-04-28T12:34:57.753Z,2.40
2018-04-28T12:37:25.371Z,1.43
2018-04-28T12:39:52.949Z,1.83
2018-04-28T12:42:20.550Z,2.00
2018-04-28T12:44:48.138Z,1.80
2018-04-28T12:47:15.849Z,1.87
2018-04-28T12:49:43.435Z,2.30
2018-04-28T12:52:11.057Z,1.63
2018-04-28T12:54:38.629Z,1.90
2018-04-28T12:57:06.210Z,1.93
2018-04-28T12:59:33.786Z,1.83
2018-04-28T13:02:01.361Z,1.50
2018-04-28T13:04:28.941Z,2.40
2018-04-28T13:06:56.519Z,1.70
2018-04-28T13:09:24.113Z,1.50
2018-04-28T13:11:51.689Z,1.90
2018-04-28T13:14:19.370Z,1.90
2018-04-28T13:16:46.954Z,2.17
2018-04-28T13:19:14.565Z,1.87
2018-04-28T13:21:42.194Z,1.97
2018-04-28T13:24:09.793Z,1.80
2018-04-28T13:26:37.501Z,2.03
2018-04-28T13:29:05.150Z,1.20
2018-04-28T13:31:32.689Z,1.70
2018-04-28T13:34:00.290Z,1.90
2018-04-28T13:36:27.864Z,1.53
2018-04-28T13:38:55.441Z,1.80
2018-04-28T13:41:23.013Z,1.83
2018-04-28T13:43:50.591Z,1.70
2018-04-28T13:46:18.236Z,1.60
2018-04-28T13:48:45.907Z,2.33
2018-04-28T13:51:13.522Z,1.40
2018-04-28T13:53:41.113Z,1.30
2018-04-28T13:56:09.099Z,1.47
2018-04-28T13:58:36.615Z,1.33
2018-04-28T14:01:04.228Z,2.50
2018-04-28T14:03:31.870Z,1.40
2018-04-28T14:05:59.477Z,1.60
2018-04-28T14:08:27.053Z,1.57
2018-04-28T14:10:54.674Z,1.50
2018-04-28T14:13:22.254Z,1.63
2018-04-28T14:15:49.835Z,1.63
2018-04-28T14:18:17.413Z,1.70
2018-04-28T14:20:44.997Z,1.67
2018-04-28T14:23:12.586Z,1.50
2018-04-28T14:25:40.233Z,1.40
2018-04-28T14:28:07.846Z,1.70
2018-04-28T14:30:35.427Z,1.50
2018-04-28T14:33:03.131Z,1.70
2018-04-28T14:35:30.706Z,2.30
2018-04-28T14:37:58.305Z,2.20
2018-04-28T14:40:25.930Z,1.60
2018-04-28T14:42:53.516Z,1.53
2018-04-28T14:45:21.130Z,1.63
2018-04-28T14:47:48.765Z,2.03
2018-04-28T14:50:16.387Z,1.77
2018-04-28T14:52:44.171Z,1.83
2018-04-28T14:55:11.709Z,1.70
2018-04-28T14:57:39.296Z,1.43
2018-04-28T15:00:06.971Z,1.60
2018-04-28T15:02:34.570Z,1.67
2018-04-28T15:05:02.155Z,2.00
2018-04-28T15:07:29.764Z,2.13
2018-04-28T15:09:57.435Z,1.77
2018-04-28T15:12:24.989Z,1.70
2018-04-28T15:14:52.605Z,3.47
2018-04-28T15:17:21.238Z,1.63
2018-04-28T15:19:48.816Z,2.23
2018-04-28T15:22:16.393Z,4.03
2018-04-28T15:24:43.969Z,2.17
2018-04-28T15:27:12.363Z,1.67
2018-04-28T15:29:40.086Z,1.73
2018-04-28T15:32:07.749Z,1.80
2018-04-28T15:34:35.330Z,2.00
2018-04-28T15:37:02.912Z,1.53
2018-04-28T15:39:30.496Z,1.97
2018-04-28T15:41:58.109Z,3.13
2018-04-28T15:44:25.758Z,1.90
2018-04-28T15:46:53.384Z,1.30
2018-04-28T15:49:20.970Z,2.40
2018-04-28T15:51:49.518Z,1.83
2018-04-28T15:54:21.238Z,1.70
2018-04-28T15:56:48.995Z,2.90
2018-04-28T15:59:16.600Z,1.90
2018-04-28T16:01:44.184Z,2.47
2018-04-28T16:04:11.791Z,1.50
2018-04-28T16:06:39.371Z,1.70
2018-04-28T16:09:06.946Z,1.50
2018-04-28T16:11:35.011Z,1.50
2018-04-28T16:14:02.798Z,2.17
2018-04-28T16:16:30.430Z,3.87
2018-04-28T16:18:58.058Z,2.13
2018-04-28T16:21:25.634Z,2.53
2018-04-28T16:23:53.282Z,2.33
2018-04-28T16:26:20.861Z,1.80
2018-04-28T16:28:48.459Z,2.33
2018-04-28T16:31:16.032Z,1.53
2018-04-28T16:33:43.609Z,2.23
2018-04-28T16:36:11.195Z,2.40
2018-04-28T16:38:38.828Z,1.83
2018-04-28T16:41:06.382Z,1.93
2018-04-28T16:43:34.081Z,1.63
2018-04-28T16:46:03.015Z,1.90
2018-04-28T16:48:30.590Z,1.70
2018-04-28T16:50:58.313Z,2.10
2018-04-28T16:53:26.354Z,1.83
2018-04-28T16:55:53.982Z,2.17
2018-04-28T16:58:21.557Z,2.07
2018-04-28T17:00:53.460Z,1.83
2018-04-28T17:03:21.112Z,1.40
2018-04-28T17:05:48.770Z,1.93
2018-04-28T17:08:16.355Z,2.00
2018-04-28T17:10:43.943Z,2.20
2018-04-28T17:13:11.614Z,2.50
2018-04-28T17:15:39.936Z,1.83
2018-04-28T17:18:08.424Z,1.90
2018-04-28T17:20:36.003Z,2.33
2018-04-28T17:23:03.578Z,2.40
2018-04-28T17:25:31.163Z,2.47
2018-04-28T17:27:58.871Z,2.40
2018-04-28T17:30:26.575Z,2.20
2018-04-28T17:32:54.169Z,2.43
2018-04-28T17:35:21.750Z,2.00
2018-04-28T17:37:49.423Z,2.40
2018-04-28T17:40:17.116Z,3.00
2018-04-28T17:42:44.745Z,3.20
2018-04-28T17:45:12.962Z,2.73
2018-04-28T17:47:40.606Z,2.70
2018-04-28T17:50:08.323Z,2.90
2018-04-28T17:52:35.986Z,3.17
2018-04-28T17:55:03.565Z,2.93
2018-04-28T17:57:31.891Z,2.93
2018-04-28T17:59:59.513Z,3.40
2018-04-28T18:02:27.136Z,3.43
2018-04-28T18:04:54.715Z,3.30
2018-04-28T18:07:22.341Z,3.23
2018-04-28T18:09:50.115Z,2.90
2018-04-28T18:12:17.762Z,3.90
2018-04-28T18:14:45.911Z,4.10
2018-04-28T18:17:13.499Z,3.60
2018-04-28T18:19:41.119Z,3.70
2018-04-28T18:22:08.713Z,2.97
2018-04-28T18:24:36.298Z,2.50
2018-04-28T18:27:03.951Z,2.70
2018-04-28T18:29:31.876Z,2.90
2018-04-28T18:31:59.627Z,2.50
2018-04-28T18:34:29.896Z,2.43
2018-04-28T18:36:57.561Z,2.53
2018-04-28T18:39:25.227Z,3.67
2018-04-28T18:41:52.971Z,3.00
2018-04-28T18:44:20.586Z,3.50
2018-04-28T18:46:48.173Z,3.00
2018-04-28T18:49:16.439Z,3.07
2018-04-28T18:51:44.077Z,2.90
2018-04-28T18:54:11.720Z,2.53
2018-04-28T18:56:39.522Z,2.20
2018-04-28T18:59:07.096Z,3.30
2018-04-28T19:01:34.807Z,3.10
2018-04-28T19:04:02.386Z,2.40
2018-04-28T19:06:30.040Z,2.83
2018-04-28T19:08:57.621Z,3.13
2018-04-28T19:11:25.205Z,3.80
2018-04-28T19:13:54.647Z,3.20
2018-04-28T19:16:25.812Z,3.33
2018-04-28T19:18:55.105Z,4.30
2018-04-28T19:21:22.870Z,3.30
2018-04-28T19:23:50.695Z,4.20
2018-04-28T19:26:18.315Z,4.23
2018-04-28T19:28:46.029Z,6.23
2018-04-28T19:31:13.884Z,6.37
2018-04-28T19:33:41.621Z,9.20
2018-04-28T19:36:09.217Z,6.83
2018-04-28T19:38:37.054Z,6.23
2018-04-28T19:41:04.653Z,6.30
2018-04-28T19:43:32.275Z,4.90
2018-04-28T19:45:59.905Z,5.80
2018-04-28T19:48:27.574Z,5.07
2018-04-28T19:50:55.162Z,5.63
2018-04-28T19:53:23.154Z,8.20
2018-04-28T19:55:51.083Z,10.33
2018-04-28T19:58:18.890Z,10.33
2018-04-28T20:00:46.596Z,11.83
2018-04-28T20:03:14.887Z,7.93
2018-04-28T20:05:42.755Z,8.23
2018-04-28T20:08:10.410Z,6.53
2018-04-28T20:10:39.985Z,6.20
2018-04-28T20:13:07.952Z,4.00
2018-04-28T20:15:35.585Z,3.50
2018-04-28T20:18:03.219Z,4.50
2018-04-28T20:20:30.821Z,3.90
2018-04-28T20:23:10.912Z,4.17
2018-04-28T20:25:38.499Z,3.83
2018-04-28T20:28:06.073Z,3.47
2018-04-28T20:30:33.713Z,3.37
2018-04-28T20:33:01.303Z,3.20
2018-04-28T20:35:28.933Z,3.63
2018-04-28T20:37:56.552Z,3.83
2018-04-28T20:40:24.157Z,3.10
2018-04-28T20:45:58.565Z,3.97
2018-04-28T20:48:26.267Z,3.90
2018-04-28T20:50:53.888Z,3.10
2018-04-28T20:53:21.492Z,4.10
2018-04-28T20:55:49.074Z,4.20
2018-04-28T20:58:16.689Z,4.33
2018-04-28T21:00:44.374Z,4.23
2018-04-28T21:03:11.957Z,3.70
2018-04-28T21:05:39.578Z,4.50
2018-04-28T21:08:07.295Z,4.30
2018-04-28T21:10:34.925Z,3.87
2018-04-28T21:13:02.510Z,3.33
2018-04-28T21:15:34.194Z,4.10
2018-04-28T21:18:01.919Z,3.63
2018-04-28T21:20:29.504Z,4.10
2018-04-28T21:22:57.100Z,4.00
2018-04-28T21:25:24.799Z,4.50
2018-04-28T21:27:52.381Z,3.80
2018-04-28T21:30:20.026Z,4.97
2018-04-28T21:32:47.618Z,3.70
2018-04-28T21:35:15.201Z,4.67
2018-04-28T21:37:42.815Z,3.80
2018-04-28T21:40:10.503Z,3.50
2018-04-28T21:42:38.129Z,3.60
2018-04-28T21:45:05.842Z,3.90
2018-04-28T21:47:33.465Z,4.70
2018-04-28T21:50:01.041Z,3.43
2018-04-28T21:52:28.622Z,4.33
2018-04-28T21:54:56.273Z,3.67
2018-04-28T21:57:23.953Z,3.73
2018-04-28T21:59:52.029Z,4.07
2018-04-28T22:02:20.247Z,4.27
2018-04-28T22:04:47.918Z,4.70
2018-04-28T22:07:15.545Z,4.90
2018-04-28T22:09:43.121Z,5.03
2018-04-28T22:12:10.732Z,4.57
2018-04-28T22:14:38.329Z,4.37
2018-04-28T22:17:05.906Z,3.90
2018-04-28T22:19:35.665Z,4.43
2018-04-28T22:22:03.251Z,5.00
2018-04-28T22:24:30.857Z,4.50
2018-04-28T22:26:58.433Z,4.87
2018-04-28T22:29:26.005Z,4.33
2018-04-28T22:31:53.809Z,4.80
2018-04-28T22:34:21.460Z,4.20
2018-04-28T22:36:49.042Z,5.20
2018-04-28T22:39:16.622Z,4.87
2018-04-28T22:41:44.239Z,4.60
2018-04-28T22:44:11.817Z,5.03
2018-04-28T22:46:39.394Z,5.30
2018-04-28T22:49:06.965Z,4.50
2018-04-28T22:51:34.537Z,4.80
2018-04-28T22:54:02.117Z,5.17
2018-04-28T22:56:29.694Z,5.53
2018-04-28T22:58:57.589Z,5.27
2018-04-28T23:01:25.215Z,5.43
2018-04-28T23:03:52.903Z,5.60
2018-04-28T23:06:20.488Z,5.60
2018-04-28T23:08:48.110Z,4.93
2018-04-28T23:11:15.689Z,5.50
2018-04-28T23:13:43.269Z,5.07
2018-04-28T23:16:10.853Z,5.47
2018-04-28T23:18:38.438Z,5.20
2018-04-28T23:21:06.079Z,6.07
2018-04-28T23:23:33.675Z,6.93
2018-04-28T23:26:01.307Z,5.50
2018-04-28T23:28:28.893Z,6.17
2018-04-28T23:30:56.474Z,5.83
2018-04-28T23:33:24.059Z,5.63
2018-04-28T23:35:51.637Z,6.20
2018-04-28T23:38:19.249Z,5.93
2018-04-28T23:40:46.835Z,7.00
2018-04-28T23:43:14.414Z,8.67
2018-04-28T23:45:42.565Z,8.07
2018-04-28T23:48:10.150Z,9.00
2018-04-28T23:50:37.776Z,10.80
2018-04-28T23:53:05.361Z,10.10
2018-04-28T23:55:32.961Z,11.47
2018-04-28T23:58:00.552Z,9.70
